Terminal Aerodrome Forecast
Issued by NWS Huntsville, AL

Home | Current Version | Previous Version | Text Only | Print | Product List | Glossary On
Versions: 1 2 3 4 5 6 7 8 9 10 11 12 13 14 15 16 17 18
000
FTUS44 KHUN 061603 AAB
TAFMSL
TAF AMD
KMSL 061603Z 0616/0712 28012G20KT P6SM SCT009 OVC018
      TEMPO 0616/0618 SCT018 BKN025
     FM061800 31014KT P6SM OVC018
     FM070000 35005KT P6SM OVC007=

USA.gov is the U.S. government's official web portal to all federal, state and local government web resources and services.